Latest Coastal Weather Observations for Mandora

IDW60701

Issued at 2:53 am WST Wednesday 28 September 2016 (issued every 10 minutes, with the page automatically refreshed every 10 minutes)

About coastal observations | Map of coastal stations | Coastal observations for WA | Marine services | Other Formats
Station Details ID: 004019 Name: MANDORA Lat: -19.74 Lon: 120.84 Height: 7.5 m
Data from the previous 72 hours. | See also: Recent months at Mandora
Date/Time
WST
Temp
°C
Wind Pressure Rain since
9am
mm
Weather Cloud Vis
km
Sea
Height
m
Swell
Dir  Spd
kts
Gust
kts
hPa Trend Height
m
Period
s
Dir
28/02:30am 21.1 CALM 0 0 1010.7 - 1.2 - - - - - - -
28/02:00am 21.1 CALM 0 0 1010.4 - 1.2 - - - - - - -
28/01:30am 21.0 SSW 3 4 1010.7 - 1.2 - - - - - - -
28/01:00am 21.1 SW 5 6 1011.0 - 1.0 - - - - - - -
28/12:30am 21.1 CALM 0 0 1011.3 - 1.0 - - - - - - -
28/12:00am 20.7 SSW 3 5 1011.5 - 1.0 Recent precip. - - - - - -
 
Date/Time
WST
Temp
°C
Wind Pressure Rain since
9am
mm
Weather Cloud Vis
km
Sea
Height
m
Swell
Dir  Spd
kts
Gust
kts
hPa Trend Height
m
Period
s
Dir
27/11:30pm 22.2 SW 5 7 1011.9 - 0.8 - - - - - - -
27/11:00pm 22.3 SW 5 7 1011.9 - 0.4 - - - - - - -
27/10:30pm 22.5 SW 3 6 1011.7 - 0.4 - - - - - - -
27/10:00pm 22.8 SSW 2 5 1012.1 - 0.4 - - - - - - -
27/09:30pm 22.6 SSW 3 4 1012.0 - 0.4 - - - - - - -
27/09:00pm 22.6 SSW 3 5 1012.0 - 0.4 Recent precip. - - - - - -
27/08:30pm 23.5 WSW 7 9 1011.9 - 0.0 - - - - - - -
27/08:00pm 24.6 WSW 8 12 1011.5 - 0.0 - - - - - - -
27/07:30pm 24.7 W 9 14 1011.4 - 0.0 - - - - - - -
27/07:00pm 24.4 WNW 6 9 1010.7 - 0.0 - - - - - - -
27/06:30pm 24.2 WNW 5 8 1010.3 - 0.0 - - - - - - -
27/06:00pm 24.8 NW 8 13 1010.3 - 0.0 - - - - - - -
27/05:30pm 25.5 WNW 7 12 1009.9 - 0.0 - - - - - - -
27/05:00pm 26.2 WNW 7 11 1009.4 - 0.0 - - - - - - -
27/04:30pm 26.7 WNW 8 11 1009.2 - 0.0 - - - - - - -
27/04:00pm 27.4 NW 9 12 1008.7 - 0.0 - - - - - - -
27/03:30pm 28.4 NW 9 13 1008.7 - 0.0 - - - - - - -
27/03:00pm 28.5 NNW 9 12 1008.7 - 0.0 - - - - - - -
27/02:30pm 28.2 NNW 9 13 1008.8 - 0.0 - - - - - - -
27/02:00pm 28.8 NNW 9 11 1008.9 - 0.0 - - - - - - -
27/01:30pm 28.6 NNW 7 11 1009.1 - 0.0 - - - - - - -
27/01:00pm 29.1 NW 7 10 1009.4 - 0.0 - - - - - - -
27/12:30pm 30.3 WNW 4 7 1009.5 - 0.0 - - - - - - -
27/12:00pm 30.0 NW 3 5 1010.0 - 0.0 - - - - - - -
27/11:30am 29.7 NW 5 7 1010.7 - 0.0 - - - - - - -
27/11:00am 28.9 NW 6 10 1011.1 - 0.0 - - - - - - -
27/10:30am 29.4 NNE 3 7 1011.6 - 0.0 - - - - - - -
27/10:00am 29.2 ESE 4 7 1011.7 - 0.0 - - - - - - -
27/09:30am 28.7 SE 3 5 1012.2 - 0.0 - - - - - - -
27/09:00am 27.8 S 5 7 1012.4 - 0.0 - - - - - - -
27/08:30am 26.7 SW 5 6 1012.5 - 0.0 - - - - - - -
27/08:00am 25.8 SW 5 7 1012.2 - 0.0 - - - - - - -
27/07:30am 25.1 SW 5 7 1012.0 - 0.0 - - - - - - -
27/07:00am 23.8 CALM 0 0 1011.5 - 0.0 - - - - - - -
27/06:30am 23.0 CALM 0 0 1011.0 - 0.0 - - - - - - -
27/06:00am 22.9 CALM 0 0 1011.2 - 0.0 - - - - - - -
27/05:30am 23.2 WSW 2 3 1011.1 - 0.0 - - - - - - -
27/05:00am 23.4 WSW 3 5 1010.8 - 0.0 - - - - - - -
27/04:30am 23.6 SW 3 4 1010.6 - 0.0 - - - - - - -
27/04:00am 23.6 WSW 4 5 1010.5 - 0.0 - - - - - - -
27/03:30am 23.7 WSW 4 7 1010.3 - 0.0 - - - - - - -
27/03:00am 23.7 SW 5 7 1010.4 - 0.0 - - - - - - -
27/02:30am 23.5 WSW 4 5 1010.4 - 0.0 - - - - - - -
27/02:00am 23.6 WSW 4 5 1010.2 - 0.0 - - - - - - -
27/01:30am 23.7 WSW 4 5 1010.5 - 0.0 - - - - - - -
27/01:00am 23.6 WSW 4 6 1010.9 - 0.0 - - - - - - -
27/12:30am 23.4 CALM 0 0 1011.0 - 0.0 - - - - - - -
27/12:00am 23.6 CALM 0 0 1011.3 - 0.0 - - - - - - -
 
Date/Time
WST
Temp
°C
Wind Pressure Rain since
9am
mm
Weather Cloud Vis
km
Sea
Height
m
Swell
Dir  Spd
kts
Gust
kts
hPa Trend Height
m
Period
s
Dir
26/11:30pm 23.8 CALM 0 0 1011.7 - 0.0 - - - - - - -
26/11:00pm 24.1 CALM 0 0 1011.9 - 0.0 - - - - - - -
26/10:30pm 24.3 W 3 4 1012.4 - 0.0 - - - - - - -
26/10:00pm 24.4 WSW 4 5 1012.5 - 0.0 - - - - - - -
26/09:30pm 24.6 W 4 6 1012.4 - 0.0 - - - - - - -
26/09:00pm 24.7 WSW 4 6 1012.2 - 0.0 - - - - - - -
26/08:30pm 24.8 W 5 6 1011.8 - 0.0 - - - - - - -
26/08:00pm 25.0 WNW 5 6 1011.6 - 0.0 - - - - - - -
26/07:30pm 25.0 W 6 8 1011.3 - 0.0 - - - - - - -
26/07:00pm 24.9 WNW 5 7 1011.1 - 0.0 - - - - - - -
26/06:30pm 25.1 WNW 6 9 1010.8 - 0.0 - - - - - - -
26/06:00pm 25.2 NW 7 11 1010.2 - 0.0 - - - - - - -
26/05:30pm 25.4 NW 7 10 1009.8 - 0.0 - - - - - - -
26/05:00pm 25.7 NW 8 12 1009.3 - 0.0 - - - - - - -
26/04:30pm 26.0 NW 9 13 1008.9 - 0.0 - - - - - - -
26/04:00pm 26.6 NW 9 13 1008.8 - 0.0 - - - - - - -
26/03:30pm 27.3 NW 9 14 1008.6 - 0.0 - - - - - - -
26/03:00pm 27.4 NW 10 14 1008.7 - 0.0 - - - - - - -
26/02:30pm 28.3 NNW 9 13 1008.6 - 0.0 - - - - - - -
26/02:00pm 29.3 NW 11 16 1008.8 - 0.0 - - - - - - -
26/01:30pm 28.7 NNW 10 15 1008.9 - 0.0 - - - - - - -
26/01:00pm 29.8 NW 10 15 1009.3 - 0.0 - - - - - - -
26/12:30pm 29.1 NW 9 13 1009.4 - 0.0 - - - - - - -
26/12:00pm 29.5 NW 9 14 1009.9 - 0.0 - - - - - - -
26/11:30am 29.4 NW 10 15 1010.2 - 0.0 - - - - - - -
26/11:00am 29.6 NW 9 13 1010.3 - 0.0 - - - - - - -
26/10:30am 29.6 NW 9 12 1010.6 - 0.0 - - - - - - -
26/10:00am 30.2 WNW 4 7 1010.7 - 0.0 - - - - - - -
26/09:30am 29.4 SW 5 10 1011.0 - 0.0 - - - - - - -
26/09:00am 28.7 W 5 9 1011.1 - 0.0 - - - - - - -
26/08:30am 27.5 WSW 8 11 1011.0 - 0.0 - - - - - - -
26/08:00am 26.6 SW 10 12 1010.8 - 0.0 - - - - - - -
26/07:30am 25.6 SW 9 12 1010.5 - 0.0 - - - - - - -
26/07:00am 24.2 SW 8 10 1010.3 - 0.0 - - - - - - -
26/06:30am 22.8 SW 7 10 1010.2 - 0.0 - - - - - - -
26/06:00am 20.9 SW 5 6 1009.8 - 0.0 - - - - - - -
26/05:30am 20.5 SW 5 6 1009.7 - 0.0 - - - - - - -
26/05:00am 20.8 SW 4 5 1009.4 - 0.0 - - - - - - -
26/04:30am 21.1 SW 5 6 1009.1 - 0.0 - - - - - - -
26/04:00am 20.9 SW 5 6 1009.1 - 0.0 - - - - - - -
26/03:30am 20.8 WSW 4 5 1008.9 - 0.0 - - - - - - -
26/03:00am 21.3 WSW 5 6 1009.1 - 0.0 - - - - - - -
26/02:30am 21.7 WNW 4 5 1009.2 - 0.0 - - - - - - -
26/02:00am 22.5 WNW 3 5 1009.2 - 0.0 - - - - - - -
26/01:30am 22.9 W 5 7 1009.4 - 0.0 - - - - - - -
26/01:00am 22.8 WNW 5 7 1009.8 - 0.0 - - - - - - -
26/12:30am 22.2 WNW 5 6 1009.9 - 0.0 - - - - - - -
26/12:00am 22.0 WNW 5 6 1010.3 - 0.0 - - - - - - -
 
Date/Time
WST
Temp
°C
Wind Pressure Rain since
9am
mm
Weather Cloud Vis
km
Sea
Height
m
Swell
Dir  Spd
kts
Gust
kts
hPa Trend Height
m
Period
s
Dir
25/11:30pm 22.4 WNW 5 6 1010.8 - 0.0 - - - - - - -
25/11:00pm 22.9 WNW 5 6 1010.8 - 0.0 - - - - - - -
25/10:30pm 23.6 WNW 5 7 1011.0 - 0.0 - - - - - - -
25/10:00pm 23.9 WNW 5 7 1010.8 - 0.0 - - - - - - -
25/09:30pm 24.0 W 5 7 1011.1 - 0.0 - - - - - - -
25/09:00pm 23.8 WNW 5 7 1010.9 - 0.0 - - - - - - -
25/08:30pm 24.0 WNW 5 8 1011.0 - 0.0 - - - - - - -
25/08:00pm 24.2 WNW 5 7 1010.8 - 0.0 - - - - - - -
25/07:30pm 24.3 WNW 6 8 1010.5 - 0.0 - - - - - - -
25/07:00pm 24.3 WNW 6 9 1010.2 - 0.0 - - - - - - -
25/06:30pm 24.5 NW 6 8 1009.7 - 0.0 - - - - - - -
25/06:00pm 25.0 WNW 9 14 1009.2 - 0.0 - - - - - - -
25/05:30pm 25.5 W 10 15 1008.7 - 0.0 - - - - - - -
25/05:00pm 26.1 WNW 11 16 1008.6 - 0.0 - - - - - - -
25/04:30pm 26.6 WNW 11 16 1008.6 - 0.0 - - - - - - -
25/04:00pm 28.3 WNW 11 16 1008.6 - 0.0 - - - - - - -
25/03:30pm 29.3 WNW 12 18 1008.5 - 0.0 - - - - - - -
25/03:00pm 30.2 WNW 11 17 1008.3 - 0.0 - - - - - - -
25/02:30pm 30.7 WNW 13 17 1008.2 - 0.0 - - - - - - -
25/02:00pm 31.3 WNW 10 15 1008.4 - 0.0 - - - - - - -
25/01:30pm 30.8 WNW 12 16 1008.5 - 0.0 - - - - - - -
25/01:00pm 31.2 WNW 9 15 1008.7 - 0.0 - - - - - - -
25/12:30pm 30.8 WNW 9 14 1009.1 - 0.0 - - - - - - -
25/12:00pm 31.0 WNW 9 14 1009.4 - 0.0 - - - - - - -
25/11:30am 31.2 WNW 11 15 1009.8 - 0.0 - - - - - - -
25/11:00am 30.2 NW 10 14 1010.0 - 0.0 - - - - - - -
25/10:30am 30.3 WNW 8 11 1010.3 - 0.0 - - - - - - -
25/10:00am 29.4 WNW 8 14 1010.7 - 0.0 - - - - - - -
25/09:30am 29.4 WNW 6 9 1010.9 - 0.0 - - - - - - -
25/09:00am 28.5 W 6 10 1011.0 - 0.0 - - - - - - -
25/08:30am 26.9 W 5 8 1011.2 - 0.0 - - - - - - -
25/08:00am 24.9 SW 5 7 1011.4 - 0.0 - - - - - - -
25/07:30am 22.3 WSW 5 7 1011.2 - 0.0 - - - - - - -
25/07:00am 18.2 WSW 3 4 1010.9 - 0.0 - - - - - - -
25/06:30am 14.8 SW 4 5 1010.5 - 0.0 - - - - - - -
25/06:00am 13.4 SW 5 6 1010.2 - 0.0 - - - - - - -
25/05:30am 13.6 WSW 5 6 1010.1 - 0.0 - - - - - - -
25/05:00am 13.2 W 5 6 1009.9 - 0.0 - - - - - - -
25/04:30am 12.2 WNW 5 6 1009.5 - 0.0 - - - - - - -
25/04:00am 11.9 NW 5 6 1009.3 - 0.0 - - - - - - -
25/03:30am 12.4 CALM 0 0 1009.0 - 0.0 - - - - - - -
25/03:00am 13.3 WSW 3 4 1008.9 - 0.0 - - - - - - -

Other Formats:

Comma delimited format used in spreadsheet applications
http://www.bom.gov.au/fwo/IDW60701/IDW60701.94200.axf

JavaScript Object Notation format (JSON) in row-major order
http://www.bom.gov.au/fwo/IDW60701/IDW60701.94200.json